createdAt,value
2019-01-21T00:00:16.468Z,8.40
2019-01-21T00:02:44.821Z,8.17
2019-01-21T00:05:13.082Z,7.57
2019-01-21T00:07:41.391Z,9.37
2019-01-21T00:10:09.709Z,8.77
2019-01-21T00:12:38.034Z,8.77
2019-01-21T00:15:08.227Z,9.17
2019-01-21T00:17:36.520Z,8.17
2019-01-21T00:20:06.381Z,7.93
2019-01-21T00:22:34.643Z,9.03
2019-01-21T00:25:02.935Z,8.77
2019-01-21T00:27:31.199Z,8.73
2019-01-21T00:29:59.493Z,8.63
2019-01-21T00:32:27.767Z,8.23
2019-01-21T00:34:56.128Z,8.40
2019-01-21T00:37:24.377Z,8.77
2019-01-21T00:39:52.707Z,8.17
2019-01-21T00:42:20.989Z,7.77
2019-01-21T00:44:49.283Z,8.47
2019-01-21T00:47:17.549Z,8.43
2019-01-21T00:49:45.843Z,7.93
2019-01-21T00:52:14.102Z,8.30
2019-01-21T00:54:42.409Z,7.70
2019-01-21T00:57:10.680Z,8.63
2019-01-21T00:59:38.979Z,7.50
2019-01-21T01:02:07.233Z,7.23
2019-01-21T01:04:35.528Z,7.50
2019-01-21T01:07:03.802Z,6.73
2019-01-21T01:09:32.056Z,6.33
2019-01-21T01:12:00.361Z,7.23
2019-01-21T01:14:28.654Z,7.33
2019-01-21T01:16:56.989Z,7.57
2019-01-21T01:19:25.259Z,7.97
2019-01-21T01:21:53.624Z,7.87
2019-01-21T01:24:21.888Z,7.60
2019-01-21T01:26:50.183Z,7.47
2019-01-21T01:29:18.468Z,7.10
2019-01-21T01:31:46.742Z,7.20
2019-01-21T01:34:15.014Z,6.40
2019-01-21T01:36:43.314Z,7.13
2019-01-21T01:39:11.587Z,7.03
2019-01-21T01:41:39.887Z,7.03
2019-01-21T01:44:08.224Z,6.90
2019-01-21T01:46:36.609Z,7.50
2019-01-21T01:49:04.867Z,7.23
2019-01-21T01:51:33.161Z,7.20
2019-01-21T01:54:01.447Z,6.90
2019-01-21T01:56:29.809Z,7.30
2019-01-21T01:58:58.093Z,6.77
2019-01-21T02:01:26.558Z,6.57
2019-01-21T02:03:54.839Z,6.90
2019-01-21T02:06:23.157Z,7.42
2019-01-21T02:08:51.418Z,6.97
2019-01-21T02:11:19.682Z,5.50
2019-01-21T02:13:47.964Z,7.20
2019-01-21T02:16:16.259Z,6.93
2019-01-21T02:18:44.558Z,7.20
2019-01-21T02:21:12.839Z,7.00
2019-01-21T02:23:41.136Z,7.17
2019-01-21T02:26:10.082Z,6.60
2019-01-21T02:28:50.639Z,6.70
2019-01-21T02:31:40.217Z,6.78
2019-01-21T02:34:29.882Z,6.93
2019-01-21T02:37:10.384Z,7.10
2019-01-21T02:39:44.764Z,6.53
2019-01-21T02:42:16.472Z,6.80
2019-01-21T02:44:48.021Z,7.27
2019-01-21T02:47:22.492Z,6.63
2019-01-21T02:49:56.665Z,7.30
2019-01-21T02:52:31.442Z,6.87
2019-01-21T02:55:03.007Z,7.10
2019-01-21T02:57:34.604Z,7.13
2019-01-21T03:00:21.014Z,6.73
2019-01-21T03:03:12.157Z,7.00
2019-01-21T03:06:01.779Z,7.50
2019-01-21T03:08:45.302Z,6.97
2019-01-21T03:11:22.573Z,7.50
2019-01-21T03:13:56.883Z,7.03
2019-01-21T03:16:59.704Z,7.43
2019-01-21T03:19:36.905Z,7.25
2019-01-21T03:22:24.817Z,7.50
2019-01-21T03:24:58.957Z,6.93
2019-01-21T03:27:36.389Z,7.30
2019-01-21T03:30:40.866Z,6.97
2019-01-21T03:33:26.727Z,7.15
2019-01-21T03:36:21.568Z,7.95
2019-01-21T03:39:05.164Z,6.95
2019-01-21T03:41:39.730Z,7.00
2019-01-21T03:44:13.890Z,6.87
2019-01-21T03:47:16.629Z,7.57
2019-01-21T03:50:16.732Z,6.12
2019-01-21T03:53:09.358Z,6.80
2019-01-21T03:55:37.693Z,6.85
2019-01-21T03:58:15.381Z,7.03
2019-01-21T04:00:49.639Z,6.58
2019-01-21T04:03:40.310Z,6.80
2019-01-21T04:06:14.753Z,6.97
2019-01-21T04:08:55.108Z,6.58
2019-01-21T04:11:32.213Z,6.80
2019-01-21T04:14:36.602Z,6.58
2019-01-21T04:17:25.793Z,7.60
2019-01-21T04:20:16.793Z,7.60
2019-01-21T04:23:16.878Z,8.28
2019-01-21T04:26:01.717Z,9.70
2019-01-21T04:28:34.082Z,8.78
2019-01-21T04:31:26.272Z,8.75
2019-01-21T04:34:00.949Z,9.33
2019-01-21T04:36:35.389Z,9.23
2019-01-21T04:39:12.619Z,9.78
2019-01-21T04:41:44.158Z,10.05
2019-01-21T04:44:18.340Z,10.75
2019-01-21T04:46:58.903Z,11.93
2019-01-21T04:49:39.186Z,11.97
2019-01-21T04:52:22.874Z,10.90
2019-01-21T04:54:57.642Z,11.35
2019-01-21T04:57:35.190Z,10.80
2019-01-21T05:00:06.846Z,10.85
2019-01-21T05:02:54.573Z,9.30
2019-01-21T05:05:44.104Z,8.90
2019-01-21T05:08:32.083Z,9.33
2019-01-21T05:11:21.695Z,9.18
2019-01-21T05:13:59.074Z,9.50
2019-01-21T05:16:42.449Z,10.60
2019-01-21T05:19:13.999Z,10.38
2019-01-21T05:21:51.452Z,10.25
2019-01-21T05:24:42.657Z,10.30
2019-01-21T05:27:20.039Z,8.90
2019-01-21T05:29:57.289Z,10.18
2019-01-21T05:32:37.478Z,10.28
2019-01-21T05:35:14.853Z,9.25
2019-01-21T05:38:01.289Z,8.10
2019-01-21T05:40:44.033Z,9.33
2019-01-21T05:43:21.419Z,8.68
2019-01-21T05:45:55.620Z,9.83
2019-01-21T05:48:54.282Z,9.58
2019-01-21T05:51:51.139Z,9.25
2019-01-21T05:54:28.412Z,9.88
2019-01-21T05:57:11.683Z,10.35
2019-01-21T05:59:58.263Z,9.43
2019-01-21T06:02:50.250Z,9.55
2019-01-21T06:05:33.784Z,8.43
2019-01-21T06:08:17.237Z,8.58
2019-01-21T06:10:54.488Z,9.15
2019-01-21T06:13:31.259Z,10.68
2019-01-21T06:16:14.652Z,10.00
2019-01-21T06:18:48.883Z,9.83
2019-01-21T06:21:28.925Z,9.80
2019-01-21T06:24:03.367Z,9.20
2019-01-21T06:26:54.044Z,8.28
2019-01-21T06:29:43.311Z,9.85
2019-01-21T06:32:26.475Z,9.43
2019-01-21T06:35:00.638Z,10.70
2019-01-21T06:37:49.837Z,10.90
2019-01-21T06:40:33.202Z,10.32
2019-01-21T06:43:28.852Z,9.90
2019-01-21T06:46:17.048Z,9.35
2019-01-21T06:49:18.767Z,8.85
2019-01-21T06:51:58.923Z,9.48
2019-01-21T06:54:46.923Z,10.05
2019-01-21T06:57:43.938Z,9.60
2019-01-21T07:00:21.117Z,10.63
2019-01-21T07:03:07.577Z,10.28
2019-01-21T07:05:59.729Z,9.18
2019-01-21T07:08:49.122Z,10.10
2019-01-21T07:11:23.553Z,10.08
2019-01-21T07:14:00.723Z,18.05
2019-01-21T07:16:47.278Z,13.13
2019-01-21T07:19:41.061Z,11.65
2019-01-21T07:22:12.627Z,10.63
2019-01-21T07:24:49.729Z,10.53
2019-01-21T07:27:21.288Z,10.10
2019-01-21T07:30:04.524Z,11.63
2019-01-21T07:32:55.591Z,11.35
2019-01-21T07:35:42.006Z,12.23
2019-01-21T07:38:16.187Z,11.60
2019-01-21T07:41:02.663Z,12.18
2019-01-21T07:43:39.834Z,11.35
2019-01-21T07:46:20.397Z,11.33
2019-01-21T07:49:03.911Z,15.80
2019-01-21T07:51:59.198Z,17.77
2019-01-21T07:54:30.824Z,15.65
2019-01-21T07:57:02.357Z,15.73
2019-01-21T07:59:51.873Z,14.50
2019-01-21T08:02:51.699Z,14.18
2019-01-21T08:05:35.160Z,13.57
2019-01-21T08:08:30.330Z,12.05
2019-01-21T08:11:13.577Z,12.18
2019-01-21T08:13:57.010Z,11.50
2019-01-21T08:16:50.968Z,10.80
2019-01-21T08:19:34.588Z,12.17
2019-01-21T08:22:14.863Z,11.73
2019-01-21T08:24:58.384Z,11.45
2019-01-21T08:27:29.904Z,10.60
2019-01-21T08:30:16.047Z,11.60
2019-01-21T08:32:56.422Z,10.78
2019-01-21T08:35:45.923Z,14.90
2019-01-21T08:38:20.487Z,13.43
2019-01-21T08:40:58.156Z,11.87
2019-01-21T08:43:32.678Z,10.73
2019-01-21T08:46:16.121Z,10.33
2019-01-21T08:49:02.533Z,33.50
2019-01-21T08:51:34.129Z,23.53
2019-01-21T08:54:11.519Z,22.47
2019-01-21T08:56:51.894Z,18.90
2019-01-21T08:59:35.487Z,18.47
2019-01-21T09:02:24.771Z,19.00
2019-01-21T09:04:58.957Z,16.80
2019-01-21T09:07:48.519Z,13.53
2019-01-21T09:10:31.803Z,13.83
2019-01-21T09:13:22.792Z,17.73
2019-01-21T09:16:02.962Z,16.97
2019-01-21T09:18:48.997Z,14.33
2019-01-21T09:21:23.208Z,14.80
2019-01-21T09:24:12.119Z,11.90
2019-01-21T09:26:55.453Z,11.67
2019-01-21T09:29:46.268Z,13.00
2019-01-21T09:32:33.869Z,12.77
2019-01-21T09:35:17.048Z,13.27
2019-01-21T09:37:48.643Z,12.73
2019-01-21T09:40:23.004Z,11.67
2019-01-21T09:42:57.388Z,11.07
2019-01-21T09:45:37.823Z,10.63
2019-01-21T09:48:05.209Z,10.67
2019-01-21T09:50:33.506Z,11.73
2019-01-21T09:53:01.847Z,11.47
2019-01-21T09:55:30.203Z,12.93
2019-01-21T09:58:01.736Z,11.80
2019-01-21T10:00:30.033Z,10.23
2019-01-21T10:02:58.291Z,8.77
2019-01-21T10:05:27.343Z,10.67
2019-01-21T10:08:01.855Z,13.03
2019-01-21T10:10:36.002Z,12.33
2019-01-21T10:13:22.308Z,10.50
2019-01-21T10:16:10.273Z,10.10
2019-01-21T10:18:59.628Z,10.67
2019-01-21T10:21:39.946Z,11.70
2019-01-21T10:24:46.183Z,11.50
2019-01-21T10:27:23.436Z,11.70
2019-01-21T10:30:03.753Z,11.27
2019-01-21T10:32:47.281Z,15.97
2019-01-21T10:35:44.341Z,14.53
2019-01-21T10:38:42.862Z,12.97
2019-01-21T10:41:14.424Z,13.50
2019-01-21T10:43:57.784Z,11.00
2019-01-21T10:46:41.001Z,15.03
2019-01-21T10:49:27.467Z,12.40
2019-01-21T10:52:11.127Z,10.47
2019-01-21T10:54:54.333Z,10.53
2019-01-21T10:57:43.513Z,10.50
2019-01-21T11:00:29.908Z,11.10
2019-01-21T11:03:09.669Z,11.70
2019-01-21T11:05:44.185Z,9.80
2019-01-21T11:08:24.679Z,9.27
2019-01-21T11:11:04.683Z,9.63
2019-01-21T11:13:56.932Z,10.10
2019-01-21T11:16:47.679Z,9.30
2019-01-21T11:19:41.707Z,8.23
2019-01-21T11:22:12.384Z,8.90
2019-01-21T11:25:00.369Z,10.37
2019-01-21T11:27:31.943Z,9.47
2019-01-21T11:30:09.094Z,10.10
2019-01-21T11:32:56.877Z,12.40
2019-01-21T11:35:34.354Z,10.67
2019-01-21T11:38:05.878Z,10.43
2019-01-21T11:40:39.981Z,9.87
2019-01-21T11:43:23.357Z,30.17
2019-01-21T11:46:17.195Z,19.60
2019-01-21T11:49:15.574Z,11.20
2019-01-21T11:51:52.639Z,14.03
2019-01-21T11:54:32.699Z,13.23
2019-01-21T11:57:04.258Z,12.90
2019-01-21T11:59:41.349Z,13.87
2019-01-21T12:02:27.777Z,18.77
2019-01-21T12:05:21.422Z,12.83
2019-01-21T12:08:04.829Z,12.57
2019-01-21T12:10:48.433Z,12.23
2019-01-21T12:13:28.152Z,13.70
2019-01-21T12:16:17.892Z,10.60
2019-01-21T12:18:55.438Z,10.97
2019-01-21T12:21:49.227Z,9.67
2019-01-21T12:24:19.671Z,10.23
2019-01-21T12:27:00.228Z,10.23
2019-01-21T12:30:00.181Z,9.80
2019-01-21T12:32:31.756Z,9.70
2019-01-21T12:35:16.244Z,9.43
2019-01-21T12:38:04.319Z,8.90
2019-01-21T12:40:52.086Z,8.70
2019-01-21T12:43:32.438Z,8.70
2019-01-21T12:46:06.882Z,10.10
2019-01-21T12:48:41.224Z,9.37
2019-01-21T12:51:27.633Z,9.17
2019-01-21T12:54:08.073Z,9.47
2019-01-21T12:57:14.002Z,8.53
2019-01-21T13:00:00.225Z,9.37
2019-01-21T13:02:34.293Z,9.27
2019-01-21T13:05:20.456Z,8.90
2019-01-21T13:07:57.733Z,8.90
2019-01-21T13:10:29.313Z,8.30
2019-01-21T13:13:18.363Z,8.17
2019-01-21T13:15:55.952Z,7.53
2019-01-21T13:18:27.504Z,8.20
2019-01-21T13:21:25.847Z,10.13
2019-01-21T13:24:12.456Z,8.53
2019-01-21T13:26:46.722Z,9.10
2019-01-21T13:29:20.816Z,7.80
2019-01-21T13:31:58.058Z,9.27
2019-01-21T13:34:35.124Z,9.23
2019-01-21T13:37:18.278Z,9.20
2019-01-21T13:40:10.457Z,8.00
2019-01-21T13:42:47.652Z,7.63
2019-01-21T13:45:35.432Z,8.37
2019-01-21T13:48:09.676Z,8.10
2019-01-21T13:50:50.167Z,9.40
2019-01-21T13:53:47.255Z,9.27
2019-01-21T13:56:43.941Z,11.70
2019-01-21T13:59:29.629Z,12.33
2019-01-21T14:02:13.043Z,9.33
2019-01-21T14:04:50.168Z,8.50
2019-01-21T14:07:44.143Z,8.73
2019-01-21T14:10:45.458Z,8.73
2019-01-21T14:13:26.366Z,11.67
2019-01-21T14:16:07.714Z,10.00
2019-01-21T14:18:42.154Z,12.20
2019-01-21T14:21:19.586Z,11.17
2019-01-21T14:24:24.044Z,11.30
2019-01-21T14:27:01.298Z,19.10
2019-01-21T14:29:44.466Z,18.70
2019-01-21T14:32:30.417Z,21.47
2019-01-21T14:35:04.674Z,14.10
2019-01-21T14:37:52.486Z,10.73
2019-01-21T14:40:29.955Z,9.43
2019-01-21T14:43:33.042Z,10.40
2019-01-21T14:46:15.877Z,11.10
2019-01-21T14:49:04.866Z,11.50
2019-01-21T14:52:03.937Z,12.67
2019-01-21T14:54:41.005Z,12.40
2019-01-21T14:57:24.426Z,11.17
2019-01-21T15:00:30.305Z,11.27
2019-01-21T15:03:07.869Z,13.17
2019-01-21T15:06:12.521Z,9.60
2019-01-21T15:08:44.147Z,9.30
2019-01-21T15:11:31.864Z,10.80
2019-01-21T15:14:03.570Z,9.07
2019-01-21T15:16:37.922Z,10.20
2019-01-21T15:19:21.346Z,9.73
2019-01-21T15:22:02.046Z,10.27
2019-01-21T15:24:36.610Z,9.90
2019-01-21T15:27:27.341Z,8.17
2019-01-21T15:29:58.897Z,9.47
2019-01-21T15:32:36.335Z,10.93
2019-01-21T15:35:20.473Z,10.20
2019-01-21T15:37:58.717Z,9.30
2019-01-21T15:40:38.938Z,10.70
2019-01-21T15:43:16.213Z,8.27
2019-01-21T15:45:52.045Z,8.43
2019-01-21T15:48:23.646Z,10.00
2019-01-21T15:51:04.795Z,10.00
2019-01-21T15:53:36.798Z,9.73
2019-01-21T15:56:30.623Z,8.93
2019-01-21T15:59:21.539Z,9.33
2019-01-21T16:02:24.541Z,10.40
2019-01-21T16:05:14.223Z,11.00
2019-01-21T16:07:45.813Z,10.60
2019-01-21T16:10:35.343Z,10.23
2019-01-21T16:13:18.827Z,11.23
2019-01-21T16:15:50.399Z,11.43
2019-01-21T16:18:30.745Z,12.30
2019-01-21T16:21:21.732Z,10.53
2019-01-21T16:24:02.075Z,10.73
2019-01-21T22:26:40.770Z,13.30
2019-01-21T22:29:09.173Z,14.37
2019-01-21T22:31:37.549Z,13.40
2019-01-21T22:34:05.941Z,14.37
2019-01-21T22:36:34.247Z,13.67
2019-01-21T22:39:02.761Z,12.50
2019-01-21T22:41:31.123Z,10.90
2019-01-21T22:43:59.418Z,11.50
2019-01-21T22:46:27.768Z,13.40
2019-01-21T22:48:56.138Z,11.80
2019-01-21T22:51:24.409Z,12.93
2019-01-21T22:53:52.871Z,11.50
2019-01-21T22:56:21.231Z,12.60
2019-01-21T22:58:49.554Z,12.40
2019-01-21T23:01:21.107Z,12.63
2019-01-21T23:03:50.371Z,12.77
2019-01-21T23:06:18.648Z,13.00
2019-01-21T23:08:46.946Z,11.23
2019-01-21T23:11:15.303Z,11.43
2019-01-21T23:13:43.706Z,12.63
2019-01-21T23:16:11.981Z,11.70
2019-01-21T23:18:40.276Z,12.60
2019-01-21T23:21:08.557Z,11.83
2019-01-21T23:23:36.987Z,11.80
2019-01-21T23:26:05.343Z,11.37
2019-01-21T23:28:33.758Z,11.57
2019-01-21T23:31:02.429Z,11.83
2019-01-21T23:33:30.752Z,11.43
2019-01-21T23:35:59.117Z,12.03
2019-01-21T23:38:27.477Z,11.23
2019-01-21T23:40:55.762Z,12.07
2019-01-21T23:43:24.097Z,10.87
2019-01-21T23:45:52.552Z,10.63
2019-01-21T23:48:20.976Z,10.97
2019-01-21T23:50:49.317Z,11.70
2019-01-21T23:53:17.667Z,11.23
2019-01-21T23:55:45.968Z,11.60
2019-01-21T23:58:14.373Z,12.37
